sensor_id;sensor_type;location;lat;lon;timestamp;P1;durP1;ratioP1;P2;durP2;ratioP2
3733;SDS011;1882;52.256;8.874;2023-05-24T00:02:09;18.83;;;4.37;;
3733;SDS011;1882;52.256;8.874;2023-05-24T00:04:39;25.03;;;4.57;;
3733;SDS011;1882;52.256;8.874;2023-05-24T00:07:07;31.23;;;5.93;;
3733;SDS011;1882;52.256;8.874;2023-05-24T00:09:35;19.03;;;4.80;;
3733;SDS011;1882;52.256;8.874;2023-05-24T00:12:06;19.20;;;4.73;;
3733;SDS011;1882;52.256;8.874;2023-05-24T00:14:35;21.53;;;5.10;;
3733;SDS011;1882;52.256;8.874;2023-05-24T00:17:02;16.30;;;4.43;;
3733;SDS011;1882;52.256;8.874;2023-05-24T00:19:30;19.27;;;5.00;;
3733;SDS011;1882;52.256;8.874;2023-05-24T00:21:57;24.70;;;5.10;;
3733;SDS011;1882;52.256;8.874;2023-05-24T00:24:25;23.23;;;4.87;;
3733;SDS011;1882;52.256;8.874;2023-05-24T00:26:52;28.80;;;4.97;;
3733;SDS011;1882;52.256;8.874;2023-05-24T00:29:19;28.40;;;5.10;;
3733;SDS011;1882;52.256;8.874;2023-05-24T00:31:46;25.60;;;5.50;;
3733;SDS011;1882;52.256;8.874;2023-05-24T00:34:14;18.60;;;4.67;;
3733;SDS011;1882;52.256;8.874;2023-05-24T00:36:43;28.33;;;5.10;;
3733;SDS011;1882;52.256;8.874;2023-05-24T00:39:10;22.50;;;5.10;;
3733;SDS011;1882;52.256;8.874;2023-05-24T00:41:37;24.87;;;5.90;;
3733;SDS011;1882;52.256;8.874;2023-05-24T00:44:05;25.37;;;5.33;;
3733;SDS011;1882;52.256;8.874;2023-05-24T00:46:32;19.53;;;5.70;;
3733;SDS011;1882;52.256;8.874;2023-05-24T00:49:01;27.30;;;6.17;;
3733;SDS011;1882;52.256;8.874;2023-05-24T00:51:29;20.90;;;5.57;;
3733;SDS011;1882;52.256;8.874;2023-05-24T00:53:59;20.70;;;5.83;;
3733;SDS011;1882;52.256;8.874;2023-05-24T00:56:28;18.93;;;5.30;;
3733;SDS011;1882;52.256;8.874;2023-05-24T00:58:57;23.50;;;5.87;;
3733;SDS011;1882;52.256;8.874;2023-05-24T01:01:24;33.37;;;6.13;;
3733;SDS011;1882;52.256;8.874;2023-05-24T01:03:52;24.73;;;5.30;;
3733;SDS011;1882;52.256;8.874;2023-05-24T01:06:20;22.30;;;6.00;;
3733;SDS011;1882;52.256;8.874;2023-05-24T01:14:44;29.17;;;5.83;;
3733;SDS011;1882;52.256;8.874;2023-05-24T01:17:26;27.43;;;6.00;;
3733;SDS011;1882;52.256;8.874;2023-05-24T01:20:01;31.93;;;6.13;;
3733;SDS011;1882;52.256;8.874;2023-05-24T01:22:39;26.30;;;6.30;;
3733;SDS011;1882;52.256;8.874;2023-05-24T01:28:17;27.73;;;7.23;;
3733;SDS011;1882;52.256;8.874;2023-05-24T01:30:45;34.90;;;5.63;;
3733;SDS011;1882;52.256;8.874;2023-05-24T01:33:12;31.40;;;6.53;;
3733;SDS011;1882;52.256;8.874;2023-05-24T01:35:40;33.67;;;6.20;;
3733;SDS011;1882;52.256;8.874;2023-05-24T01:38:08;31.30;;;6.60;;
3733;SDS011;1882;52.256;8.874;2023-05-24T01:40:39;23.03;;;6.07;;
3733;SDS011;1882;52.256;8.874;2023-05-24T01:43:17;28.37;;;6.37;;
3733;SDS011;1882;52.256;8.874;2023-05-24T01:46:25;26.10;;;6.60;;
3733;SDS011;1882;52.256;8.874;2023-05-24T01:51:57;26.37;;;6.17;;
3733;SDS011;1882;52.256;8.874;2023-05-24T01:54:27;23.53;;;5.83;;
3733;SDS011;1882;52.256;8.874;2023-05-24T01:56:58;28.33;;;6.00;;
3733;SDS011;1882;52.256;8.874;2023-05-24T01:59:25;32.63;;;6.97;;
3733;SDS011;1882;52.256;8.874;2023-05-24T02:01:58;32.03;;;6.30;;
3733;SDS011;1882;52.256;8.874;2023-05-24T02:04:26;21.13;;;5.90;;
3733;SDS011;1882;52.256;8.874;2023-05-24T02:06:55;27.97;;;6.33;;
3733;SDS011;1882;52.256;8.874;2023-05-24T02:09:22;27.23;;;7.37;;
3733;SDS011;1882;52.256;8.874;2023-05-24T02:11:49;29.83;;;6.10;;
3733;SDS011;1882;52.256;8.874;2023-05-24T02:14:16;34.13;;;5.83;;
3733;SDS011;1882;52.256;8.874;2023-05-24T02:16:46;27.77;;;5.77;;
3733;SDS011;1882;52.256;8.874;2023-05-24T02:19:13;20.97;;;6.20;;
3733;SDS011;1882;52.256;8.874;2023-05-24T02:21:40;35.47;;;6.50;;
3733;SDS011;1882;52.256;8.874;2023-05-24T02:24:09;23.40;;;7.77;;
3733;SDS011;1882;52.256;8.874;2023-05-24T02:26:41;35.10;;;6.20;;
3733;SDS011;1882;52.256;8.874;2023-05-24T02:29:09;34.00;;;6.93;;
3733;SDS011;1882;52.256;8.874;2023-05-24T02:31:36;31.23;;;6.50;;
3733;SDS011;1882;52.256;8.874;2023-05-24T02:34:10;30.10;;;6.90;;
3733;SDS011;1882;52.256;8.874;2023-05-24T02:36:37;26.23;;;6.30;;
3733;SDS011;1882;52.256;8.874;2023-05-24T02:39:06;20.90;;;5.90;;
3733;SDS011;1882;52.256;8.874;2023-05-24T02:41:33;27.17;;;5.97;;
3733;SDS011;1882;52.256;8.874;2023-05-24T02:44:04;28.50;;;6.40;;
3733;SDS011;1882;52.256;8.874;2023-05-24T02:46:33;20.53;;;6.13;;
3733;SDS011;1882;52.256;8.874;2023-05-24T02:49:05;33.63;;;6.80;;
3733;SDS011;1882;52.256;8.874;2023-05-24T02:51:33;31.83;;;7.73;;
3733;SDS011;1882;52.256;8.874;2023-05-24T02:54:03;33.07;;;6.13;;
3733;SDS011;1882;52.256;8.874;2023-05-24T02:56:30;27.20;;;6.57;;
3733;SDS011;1882;52.256;8.874;2023-05-24T02:58:57;37.00;;;6.47;;
3733;SDS011;1882;52.256;8.874;2023-05-24T03:01:24;30.93;;;6.30;;
3733;SDS011;1882;52.256;8.874;2023-05-24T03:03:55;32.27;;;6.57;;
3733;SDS011;1882;52.256;8.874;2023-05-24T03:06:24;26.43;;;6.40;;
3733;SDS011;1882;52.256;8.874;2023-05-24T03:08:52;24.87;;;6.17;;
3733;SDS011;1882;52.256;8.874;2023-05-24T03:11:19;44.37;;;7.47;;
3733;SDS011;1882;52.256;8.874;2023-05-24T03:13:48;26.57;;;6.37;;
3733;SDS011;1882;52.256;8.874;2023-05-24T03:16:16;42.13;;;7.57;;
3733;SDS011;1882;52.256;8.874;2023-05-24T03:18:46;26.67;;;5.37;;
3733;SDS011;1882;52.256;8.874;2023-05-24T03:21:17;36.03;;;6.00;;
3733;SDS011;1882;52.256;8.874;2023-05-24T03:23:46;28.43;;;5.93;;
3733;SDS011;1882;52.256;8.874;2023-05-24T03:26:15;26.70;;;5.90;;
3733;SDS011;1882;52.256;8.874;2023-05-24T03:28:42;26.07;;;6.90;;
3733;SDS011;1882;52.256;8.874;2023-05-24T03:31:31;29.50;;;6.50;;
3733;SDS011;1882;52.256;8.874;2023-05-24T03:34:13;38.10;;;7.10;;
3733;SDS011;1882;52.256;8.874;2023-05-24T03:36:58;26.33;;;6.43;;
3733;SDS011;1882;52.256;8.874;2023-05-24T03:39:48;25.53;;;6.40;;
3733;SDS011;1882;52.256;8.874;2023-05-24T03:42:43;24.93;;;6.53;;
3733;SDS011;1882;52.256;8.874;2023-05-24T03:45:45;25.10;;;6.20;;
3733;SDS011;1882;52.256;8.874;2023-05-24T03:48:14;36.83;;;7.30;;
3733;SDS011;1882;52.256;8.874;2023-05-24T03:50:57;35.97;;;6.03;;
3733;SDS011;1882;52.256;8.874;2023-05-24T03:53:39;36.50;;;7.07;;
3733;SDS011;1882;52.256;8.874;2023-05-24T03:56:13;25.13;;;6.80;;
3733;SDS011;1882;52.256;8.874;2023-05-24T03:58:59;29.53;;;7.70;;
3733;SDS011;1882;52.256;8.874;2023-05-24T04:01:35;38.83;;;7.13;;
3733;SDS011;1882;52.256;8.874;2023-05-24T04:04:09;43.90;;;6.50;;
3733;SDS011;1882;52.256;8.874;2023-05-24T04:06:38;32.43;;;7.27;;
3733;SDS011;1882;52.256;8.874;2023-05-24T04:09:21;31.73;;;6.60;;
3733;SDS011;1882;52.256;8.874;2023-05-24T04:12:06;27.37;;;6.37;;
3733;SDS011;1882;52.256;8.874;2023-05-24T04:14:53;38.27;;;6.83;;
3733;SDS011;1882;52.256;8.874;2023-05-24T04:17:49;28.60;;;6.93;;
3733;SDS011;1882;52.256;8.874;2023-05-24T04:20:23;26.53;;;5.90;;
3733;SDS011;1882;52.256;8.874;2023-05-24T04:23:05;38.57;;;6.60;;
3733;SDS011;1882;52.256;8.874;2023-05-24T04:26:01;26.77;;;6.70;;
3733;SDS011;1882;52.256;8.874;2023-05-24T04:28:28;24.47;;;6.30;;
3733;SDS011;1882;52.256;8.874;2023-05-24T04:30:55;26.67;;;6.40;;
3733;SDS011;1882;52.256;8.874;2023-05-24T04:33:23;30.60;;;5.77;;
3733;SDS011;1882;52.256;8.874;2023-05-24T04:35:51;36.03;;;6.67;;
3733;SDS011;1882;52.256;8.874;2023-05-24T04:38:19;30.30;;;6.57;;
3733;SDS011;1882;52.256;8.874;2023-05-24T04:40:47;33.17;;;6.73;;
3733;SDS011;1882;52.256;8.874;2023-05-24T04:43:21;24.93;;;6.03;;
3733;SDS011;1882;52.256;8.874;2023-05-24T04:45:50;28.73;;;5.90;;
3733;SDS011;1882;52.256;8.874;2023-05-24T04:48:18;18.80;;;5.80;;
3733;SDS011;1882;52.256;8.874;2023-05-24T04:50:59;28.10;;;6.57;;
3733;SDS011;1882;52.256;8.874;2023-05-24T04:53:43;23.07;;;5.50;;
3733;SDS011;1882;52.256;8.874;2023-05-24T04:56:12;23.53;;;5.67;;
3733;SDS011;1882;52.256;8.874;2023-05-24T04:58:40;18.50;;;5.60;;
3733;SDS011;1882;52.256;8.874;2023-05-24T05:01:12;25.77;;;6.20;;
3733;SDS011;1882;52.256;8.874;2023-05-24T05:03:40;24.30;;;5.10;;
3733;SDS011;1882;52.256;8.874;2023-05-24T05:06:08;30.60;;;5.60;;
3733;SDS011;1882;52.256;8.874;2023-05-24T05:08:36;25.17;;;6.10;;
3733;SDS011;1882;52.256;8.874;2023-05-24T05:11:04;26.30;;;5.80;;
3733;SDS011;1882;52.256;8.874;2023-05-24T05:13:31;27.60;;;6.17;;
3733;SDS011;1882;52.256;8.874;2023-05-24T05:15:58;17.10;;;6.00;;
3733;SDS011;1882;52.256;8.874;2023-05-24T05:18:25;29.63;;;5.97;;
3733;SDS011;1882;52.256;8.874;2023-05-24T05:20:52;25.20;;;5.80;;
3733;SDS011;1882;52.256;8.874;2023-05-24T05:23:20;18.20;;;4.60;;
3733;SDS011;1882;52.256;8.874;2023-05-24T05:25:47;35.37;;;6.53;;
3733;SDS011;1882;52.256;8.874;2023-05-24T05:28:14;17.60;;;5.10;;
3733;SDS011;1882;52.256;8.874;2023-05-24T05:30:41;18.43;;;4.90;;
3733;SDS011;1882;52.256;8.874;2023-05-24T05:33:09;18.43;;;5.00;;
3733;SDS011;1882;52.256;8.874;2023-05-24T05:35:36;15.13;;;4.67;;
3733;SDS011;1882;52.256;8.874;2023-05-24T05:38:05;21.10;;;5.93;;
3733;SDS011;1882;52.256;8.874;2023-05-24T05:40:33;21.90;;;5.00;;
3733;SDS011;1882;52.256;8.874;2023-05-24T05:43:01;21.60;;;5.20;;
3733;SDS011;1882;52.256;8.874;2023-05-24T05:45:28;25.27;;;5.00;;
3733;SDS011;1882;52.256;8.874;2023-05-24T05:47:55;22.07;;;5.47;;
3733;SDS011;1882;52.256;8.874;2023-05-24T05:50:22;19.87;;;6.10;;
3733;SDS011;1882;52.256;8.874;2023-05-24T05:52:49;25.73;;;5.50;;
3733;SDS011;1882;52.256;8.874;2023-05-24T05:55:16;20.83;;;5.40;;
3733;SDS011;1882;52.256;8.874;2023-05-24T05:57:43;26.40;;;5.13;;
3733;SDS011;1882;52.256;8.874;2023-05-24T06:00:10;22.27;;;5.73;;
3733;SDS011;1882;52.256;8.874;2023-05-24T06:02:37;28.30;;;5.60;;
3733;SDS011;1882;52.256;8.874;2023-05-24T06:05:05;20.77;;;5.30;;
3733;SDS011;1882;52.256;8.874;2023-05-24T06:07:32;21.70;;;5.00;;
3733;SDS011;1882;52.256;8.874;2023-05-24T06:10:02;21.33;;;5.50;;
3733;SDS011;1882;52.256;8.874;2023-05-24T06:12:30;21.40;;;4.70;;
3733;SDS011;1882;52.256;8.874;2023-05-24T06:14:57;18.20;;;4.90;;
3733;SDS011;1882;52.256;8.874;2023-05-24T06:17:25;14.50;;;4.80;;
3733;SDS011;1882;52.256;8.874;2023-05-24T06:19:53;25.73;;;5.40;;
3733;SDS011;1882;52.256;8.874;2023-05-24T06:22:21;16.47;;;5.07;;
3733;SDS011;1882;52.256;8.874;2023-05-24T06:24:49;35.90;;;6.80;;
3733;SDS011;1882;52.256;8.874;2023-05-24T06:27:18;22.80;;;5.87;;
3733;SDS011;1882;52.256;8.874;2023-05-24T06:29:45;22.93;;;5.63;;
3733;SDS011;1882;52.256;8.874;2023-05-24T06:32:13;20.20;;;5.30;;
3733;SDS011;1882;52.256;8.874;2023-05-24T06:34:40;24.27;;;5.20;;
3733;SDS011;1882;52.256;8.874;2023-05-24T06:37:08;19.90;;;5.73;;
3733;SDS011;1882;52.256;8.874;2023-05-24T06:39:35;28.83;;;5.37;;
3733;SDS011;1882;52.256;8.874;2023-05-24T06:42:03;19.27;;;6.10;;
3733;SDS011;1882;52.256;8.874;2023-05-24T06:44:34;17.33;;;5.30;;
3733;SDS011;1882;52.256;8.874;2023-05-24T06:47:02;19.70;;;5.80;;
3733;SDS011;1882;52.256;8.874;2023-05-24T06:49:32;24.93;;;4.67;;
3733;SDS011;1882;52.256;8.874;2023-05-24T06:51:59;18.10;;;5.23;;
3733;SDS011;1882;52.256;8.874;2023-05-24T06:54:27;19.67;;;5.27;;
3733;SDS011;1882;52.256;8.874;2023-05-24T06:56:55;28.37;;;5.87;;
3733;SDS011;1882;52.256;8.874;2023-05-24T06:59:23;18.80;;;5.67;;
3733;SDS011;1882;52.256;8.874;2023-05-24T07:01:51;22.17;;;5.23;;
3733;SDS011;1882;52.256;8.874;2023-05-24T07:04:26;17.93;;;5.70;;
3733;SDS011;1882;52.256;8.874;2023-05-24T07:06:56;20.80;;;6.10;;
3733;SDS011;1882;52.256;8.874;2023-05-24T07:09:24;18.03;;;5.30;;
3733;SDS011;1882;52.256;8.874;2023-05-24T07:11:51;21.30;;;5.80;;
3733;SDS011;1882;52.256;8.874;2023-05-24T07:14:19;23.20;;;6.00;;
3733;SDS011;1882;52.256;8.874;2023-05-24T07:16:48;22.80;;;6.17;;
3733;SDS011;1882;52.256;8.874;2023-05-24T07:19:16;21.37;;;5.87;;
3733;SDS011;1882;52.256;8.874;2023-05-24T07:21:43;31.70;;;6.63;;
3733;SDS011;1882;52.256;8.874;2023-05-24T07:24:10;15.87;;;5.20;;
3733;SDS011;1882;52.256;8.874;2023-05-24T07:26:41;22.50;;;6.10;;
3733;SDS011;1882;52.256;8.874;2023-05-24T07:29:08;24.93;;;5.40;;
3733;SDS011;1882;52.256;8.874;2023-05-24T07:31:36;15.90;;;5.67;;
3733;SDS011;1882;52.256;8.874;2023-05-24T07:34:03;22.57;;;5.43;;
3733;SDS011;1882;52.256;8.874;2023-05-24T07:36:31;27.87;;;5.53;;
3733;SDS011;1882;52.256;8.874;2023-05-24T07:39:00;17.57;;;5.57;;
3733;SDS011;1882;52.256;8.874;2023-05-24T07:41:31;21.20;;;5.77;;
3733;SDS011;1882;52.256;8.874;2023-05-24T07:43:58;22.90;;;5.47;;
3733;SDS011;1882;52.256;8.874;2023-05-24T07:46:26;25.10;;;6.13;;
3733;SDS011;1882;52.256;8.874;2023-05-24T07:48:53;28.60;;;6.10;;
3733;SDS011;1882;52.256;8.874;2023-05-24T07:51:24;18.30;;;5.93;;
3733;SDS011;1882;52.256;8.874;2023-05-24T07:53:52;23.13;;;5.53;;
3733;SDS011;1882;52.256;8.874;2023-05-24T07:56:20;20.97;;;5.43;;
3733;SDS011;1882;52.256;8.874;2023-05-24T07:58:49;18.10;;;6.60;;
3733;SDS011;1882;52.256;8.874;2023-05-24T08:01:17;21.27;;;6.47;;
3733;SDS011;1882;52.256;8.874;2023-05-24T08:03:46;20.17;;;5.83;;
3733;SDS011;1882;52.256;8.874;2023-05-24T08:06:17;18.30;;;5.80;;
3733;SDS011;1882;52.256;8.874;2023-05-24T08:08:44;24.53;;;6.17;;
3733;SDS011;1882;52.256;8.874;2023-05-24T08:11:13;32.73;;;6.40;;
3733;SDS011;1882;52.256;8.874;2023-05-24T08:13:42;19.10;;;6.13;;
3733;SDS011;1882;52.256;8.874;2023-05-24T08:16:10;19.10;;;5.23;;
3733;SDS011;1882;52.256;8.874;2023-05-24T08:18:37;18.97;;;5.60;;
3733;SDS011;1882;52.256;8.874;2023-05-24T08:21:05;23.40;;;5.13;;
3733;SDS011;1882;52.256;8.874;2023-05-24T08:23:34;23.43;;;6.70;;
3733;SDS011;1882;52.256;8.874;2023-05-24T08:26:01;16.53;;;5.30;;
3733;SDS011;1882;52.256;8.874;2023-05-24T08:28:28;17.30;;;5.13;;
3733;SDS011;1882;52.256;8.874;2023-05-24T08:30:59;24.47;;;5.47;;
3733;SDS011;1882;52.256;8.874;2023-05-24T08:33:27;18.30;;;5.20;;
3733;SDS011;1882;52.256;8.874;2023-05-24T08:35:55;28.33;;;5.67;;
3733;SDS011;1882;52.256;8.874;2023-05-24T08:38:23;25.23;;;6.00;;
3733;SDS011;1882;52.256;8.874;2023-05-24T08:40:50;25.17;;;6.03;;
3733;SDS011;1882;52.256;8.874;2023-05-24T08:43:20;22.60;;;6.03;;
3733;SDS011;1882;52.256;8.874;2023-05-24T08:45:47;16.70;;;5.63;;
3733;SDS011;1882;52.256;8.874;2023-05-24T08:48:14;25.20;;;5.33;;
3733;SDS011;1882;52.256;8.874;2023-05-24T08:50:43;21.83;;;5.77;;
3733;SDS011;1882;52.256;8.874;2023-05-24T08:53:11;26.33;;;5.80;;
3733;SDS011;1882;52.256;8.874;2023-05-24T08:55:39;20.33;;;5.83;;
3733;SDS011;1882;52.256;8.874;2023-05-24T08:58:10;19.67;;;4.70;;
3733;SDS011;1882;52.256;8.874;2023-05-24T09:00:37;27.97;;;6.03;;
3733;SDS011;1882;52.256;8.874;2023-05-24T09:03:07;21.00;;;5.57;;
3733;SDS011;1882;52.256;8.874;2023-05-24T09:05:35;33.60;;;6.33;;
3733;SDS011;1882;52.256;8.874;2023-05-24T09:08:02;26.70;;;6.37;;
3733;SDS011;1882;52.256;8.874;2023-05-24T09:10:31;26.10;;;5.77;;
3733;SDS011;1882;52.256;8.874;2023-05-24T09:13:18;19.20;;;5.83;;
3733;SDS011;1882;52.256;8.874;2023-05-24T09:15:52;21.30;;;5.77;;
3733;SDS011;1882;52.256;8.874;2023-05-24T09:18:19;29.00;;;5.80;;
3733;SDS011;1882;52.256;8.874;2023-05-24T09:20:47;22.57;;;5.80;;
3733;SDS011;1882;52.256;8.874;2023-05-24T09:23:16;20.70;;;5.97;;
3733;SDS011;1882;52.256;8.874;2023-05-24T09:25:43;24.87;;;5.23;;
3733;SDS011;1882;52.256;8.874;2023-05-24T09:28:12;24.57;;;6.80;;
3733;SDS011;1882;52.256;8.874;2023-05-24T09:30:43;19.97;;;6.03;;
3733;SDS011;1882;52.256;8.874;2023-05-24T09:33:11;20.53;;;6.00;;
3733;SDS011;1882;52.256;8.874;2023-05-24T09:35:42;24.87;;;6.10;;
3733;SDS011;1882;52.256;8.874;2023-05-24T09:38:16;18.63;;;5.80;;
3733;SDS011;1882;52.256;8.874;2023-05-24T09:40:44;20.70;;;5.80;;
3733;SDS011;1882;52.256;8.874;2023-05-24T09:43:12;21.30;;;6.07;;
3733;SDS011;1882;52.256;8.874;2023-05-24T09:45:44;21.80;;;5.97;;
3733;SDS011;1882;52.256;8.874;2023-05-24T09:48:15;23.10;;;6.67;;
3733;SDS011;1882;52.256;8.874;2023-05-24T09:50:43;26.17;;;6.63;;
3733;SDS011;1882;52.256;8.874;2023-05-24T09:53:16;24.33;;;6.60;;
3733;SDS011;1882;52.256;8.874;2023-05-24T09:55:44;30.00;;;6.77;;
3733;SDS011;1882;52.256;8.874;2023-05-24T09:58:13;26.47;;;7.13;;
3733;SDS011;1882;52.256;8.874;2023-05-24T10:00:41;28.43;;;6.70;;
3733;SDS011;1882;52.256;8.874;2023-05-24T10:03:12;23.03;;;6.37;;
3733;SDS011;1882;52.256;8.874;2023-05-24T10:05:41;29.53;;;6.23;;
3733;SDS011;1882;52.256;8.874;2023-05-24T10:08:10;16.77;;;5.50;;
3733;SDS011;1882;52.256;8.874;2023-05-24T10:10:38;23.50;;;6.70;;
3733;SDS011;1882;52.256;8.874;2023-05-24T10:13:06;18.80;;;6.40;;
3733;SDS011;1882;52.256;8.874;2023-05-24T10:15:33;27.00;;;6.97;;
3733;SDS011;1882;52.256;8.874;2023-05-24T10:18:00;20.87;;;6.63;;
3733;SDS011;1882;52.256;8.874;2023-05-24T10:20:28;20.90;;;6.70;;
3733;SDS011;1882;52.256;8.874;2023-05-24T10:22:59;18.90;;;6.60;;
3733;SDS011;1882;52.256;8.874;2023-05-24T10:25:28;28.83;;;6.53;;
3733;SDS011;1882;52.256;8.874;2023-05-24T10:28:03;29.17;;;7.33;;
3733;SDS011;1882;52.256;8.874;2023-05-24T10:30:36;21.87;;;6.60;;
3733;SDS011;1882;52.256;8.874;2023-05-24T10:33:08;18.50;;;6.60;;
3733;SDS011;1882;52.256;8.874;2023-05-24T10:35:39;21.13;;;6.33;;
3733;SDS011;1882;52.256;8.874;2023-05-24T10:38:07;26.70;;;6.90;;
3733;SDS011;1882;52.256;8.874;2023-05-24T10:40:39;21.93;;;7.30;;
3733;SDS011;1882;52.256;8.874;2023-05-24T10:43:07;23.53;;;7.13;;
3733;SDS011;1882;52.256;8.874;2023-05-24T10:45:39;21.60;;;6.40;;
3733;SDS011;1882;52.256;8.874;2023-05-24T10:48:07;20.10;;;6.27;;
3733;SDS011;1882;52.256;8.874;2023-05-24T10:50:41;20.60;;;6.67;;
3733;SDS011;1882;52.256;8.874;2023-05-24T10:53:14;23.87;;;6.73;;
3733;SDS011;1882;52.256;8.874;2023-05-24T10:59:07;27.43;;;7.13;;
3733;SDS011;1882;52.256;8.874;2023-05-24T11:04:09;24.23;;;7.40;;
3733;SDS011;1882;52.256;8.874;2023-05-24T11:09:31;19.53;;;6.90;;
3733;SDS011;1882;52.256;8.874;2023-05-24T11:12:01;21.60;;;6.93;;
3733;SDS011;1882;52.256;8.874;2023-05-24T11:14:29;21.30;;;6.70;;
3733;SDS011;1882;52.256;8.874;2023-05-24T11:16:57;20.60;;;6.70;;
3733;SDS011;1882;52.256;8.874;2023-05-24T11:19:35;24.93;;;6.73;;
3733;SDS011;1882;52.256;8.874;2023-05-24T11:22:03;18.80;;;5.63;;
3733;SDS011;1882;52.256;8.874;2023-05-24T11:24:32;22.10;;;6.67;;
3733;SDS011;1882;52.256;8.874;2023-05-24T11:27:00;22.50;;;7.73;;
3733;SDS011;1882;52.256;8.874;2023-05-24T11:29:30;18.73;;;6.50;;
3733;SDS011;1882;52.256;8.874;2023-05-24T11:32:00;25.87;;;8.13;;
3733;SDS011;1882;52.256;8.874;2023-05-24T11:34:31;23.70;;;6.40;;
3733;SDS011;1882;52.256;8.874;2023-05-24T11:36:59;21.27;;;6.60;;
3733;SDS011;1882;52.256;8.874;2023-05-24T11:39:31;23.17;;;6.80;;
3733;SDS011;1882;52.256;8.874;2023-05-24T11:42:00;23.10;;;7.00;;
3733;SDS011;1882;52.256;8.874;2023-05-24T11:44:31;21.60;;;7.50;;
3733;SDS011;1882;52.256;8.874;2023-05-24T11:46:59;28.67;;;7.33;;
3733;SDS011;1882;52.256;8.874;2023-05-24T11:49:28;26.17;;;6.30;;
3733;SDS011;1882;52.256;8.874;2023-05-24T11:51:56;23.60;;;6.80;;
3733;SDS011;1882;52.256;8.874;2023-05-24T11:54:28;24.63;;;6.67;;
3733;SDS011;1882;52.256;8.874;2023-05-24T11:57:00;25.73;;;6.87;;
3733;SDS011;1882;52.256;8.874;2023-05-24T11:59:28;20.13;;;6.70;;
3733;SDS011;1882;52.256;8.874;2023-05-24T12:01:57;16.80;;;6.50;;
3733;SDS011;1882;52.256;8.874;2023-05-24T12:04:29;26.70;;;7.07;;
3733;SDS011;1882;52.256;8.874;2023-05-24T12:07:00;21.17;;;6.43;;
3733;SDS011;1882;52.256;8.874;2023-05-24T12:09:27;25.50;;;7.20;;
3733;SDS011;1882;52.256;8.874;2023-05-24T12:11:55;28.93;;;7.60;;
3733;SDS011;1882;52.256;8.874;2023-05-24T12:14:28;23.03;;;7.20;;
3733;SDS011;1882;52.256;8.874;2023-05-24T12:16:57;21.90;;;6.70;;
3733;SDS011;1882;52.256;8.874;2023-05-24T12:19:28;19.57;;;7.57;;
3733;SDS011;1882;52.256;8.874;2023-05-24T12:22:03;21.07;;;7.47;;
3733;SDS011;1882;52.256;8.874;2023-05-24T12:24:33;21.50;;;7.13;;
3733;SDS011;1882;52.256;8.874;2023-05-24T12:27:01;21.03;;;7.17;;
3733;SDS011;1882;52.256;8.874;2023-05-24T12:29:37;25.83;;;7.67;;
3733;SDS011;1882;52.256;8.874;2023-05-24T12:32:08;22.47;;;7.17;;
3733;SDS011;1882;52.256;8.874;2023-05-24T12:34:41;18.27;;;6.43;;
3733;SDS011;1882;52.256;8.874;2023-05-24T12:37:43;20.87;;;6.93;;
3733;SDS011;1882;52.256;8.874;2023-05-24T12:40:59;24.00;;;7.70;;
3733;SDS011;1882;52.256;8.874;2023-05-24T12:43:41;25.13;;;7.10;;
3733;SDS011;1882;52.256;8.874;2023-05-24T12:46:27;23.40;;;7.53;;
3733;SDS011;1882;52.256;8.874;2023-05-24T12:49:03;23.90;;;7.10;;
3733;SDS011;1882;52.256;8.874;2023-05-24T12:51:57;18.63;;;6.90;;
3733;SDS011;1882;52.256;8.874;2023-05-24T12:54:24;29.80;;;7.40;;
3733;SDS011;1882;52.256;8.874;2023-05-24T12:56:52;19.70;;;6.37;;
3733;SDS011;1882;52.256;8.874;2023-05-24T12:59:22;21.00;;;6.90;;
3733;SDS011;1882;52.256;8.874;2023-05-24T13:01:49;29.57;;;7.07;;
3733;SDS011;1882;52.256;8.874;2023-05-24T13:04:18;20.50;;;7.43;;
3733;SDS011;1882;52.256;8.874;2023-05-24T13:06:47;19.83;;;7.70;;
3733;SDS011;1882;52.256;8.874;2023-05-24T13:09:14;26.43;;;7.00;;
3733;SDS011;1882;52.256;8.874;2023-05-24T13:11:47;26.10;;;6.93;;
3733;SDS011;1882;52.256;8.874;2023-05-24T13:14:14;17.63;;;6.53;;
3733;SDS011;1882;52.256;8.874;2023-05-24T13:16:42;20.80;;;6.87;;
3733;SDS011;1882;52.256;8.874;2023-05-24T13:19:11;26.90;;;6.80;;
3733;SDS011;1882;52.256;8.874;2023-05-24T13:21:38;17.20;;;6.03;;
3733;SDS011;1882;52.256;8.874;2023-05-24T13:24:06;25.73;;;7.80;;
3733;SDS011;1882;52.256;8.874;2023-05-24T13:26:33;23.57;;;7.60;;
3733;SDS011;1882;52.256;8.874;2023-05-24T13:29:03;23.00;;;7.80;;
3733;SDS011;1882;52.256;8.874;2023-05-24T13:31:34;17.87;;;7.03;;
3733;SDS011;1882;52.256;8.874;2023-05-24T13:34:04;26.07;;;7.00;;
3733;SDS011;1882;52.256;8.874;2023-05-24T13:36:32;16.67;;;6.90;;
3733;SDS011;1882;52.256;8.874;2023-05-24T13:38:58;17.67;;;7.13;;
3733;SDS011;1882;52.256;8.874;2023-05-24T13:41:40;20.27;;;6.70;;
3733;SDS011;1882;52.256;8.874;2023-05-24T13:44:08;19.27;;;6.73;;
3733;SDS011;1882;52.256;8.874;2023-05-24T13:46:38;24.30;;;7.87;;
3733;SDS011;1882;52.256;8.874;2023-05-24T13:49:05;23.93;;;7.33;;
3733;SDS011;1882;52.256;8.874;2023-05-24T13:51:34;17.10;;;6.17;;
3733;SDS011;1882;52.256;8.874;2023-05-24T13:54:01;28.33;;;7.67;;
3733;SDS011;1882;52.256;8.874;2023-05-24T13:59:22;20.70;;;7.57;;
3733;SDS011;1882;52.256;8.874;2023-05-24T14:12:26;20.27;;;7.43;;
3733;SDS011;1882;52.256;8.874;2023-05-24T14:18:15;20.23;;;6.67;;
3733;SDS011;1882;52.256;8.874;2023-05-24T14:20:42;18.23;;;6.87;;
3733;SDS011;1882;52.256;8.874;2023-05-24T14:23:09;19.60;;;7.03;;
3733;SDS011;1882;52.256;8.874;2023-05-24T14:25:37;20.97;;;6.77;;
3733;SDS011;1882;52.256;8.874;2023-05-24T14:28:06;21.83;;;6.90;;
3733;SDS011;1882;52.256;8.874;2023-05-24T14:30:37;19.33;;;6.60;;
3733;SDS011;1882;52.256;8.874;2023-05-24T14:33:05;23.00;;;7.57;;
3733;SDS011;1882;52.256;8.874;2023-05-24T14:35:36;25.67;;;7.77;;
3733;SDS011;1882;52.256;8.874;2023-05-24T14:38:06;21.13;;;7.50;;
3733;SDS011;1882;52.256;8.874;2023-05-24T14:40:35;22.70;;;7.00;;
3733;SDS011;1882;52.256;8.874;2023-05-24T14:43:03;18.23;;;7.40;;
3733;SDS011;1882;52.256;8.874;2023-05-24T14:45:31;22.80;;;7.43;;
3733;SDS011;1882;52.256;8.874;2023-05-24T14:47:59;25.63;;;8.03;;
3733;SDS011;1882;52.256;8.874;2023-05-24T14:50:26;22.00;;;8.37;;
3733;SDS011;1882;52.256;8.874;2023-05-24T14:52:53;20.27;;;7.93;;
3733;SDS011;1882;52.256;8.874;2023-05-24T14:55:21;22.93;;;7.30;;
3733;SDS011;1882;52.256;8.874;2023-05-24T14:57:48;15.13;;;7.07;;
3733;SDS011;1882;52.256;8.874;2023-05-24T15:00:17;16.73;;;6.57;;
3733;SDS011;1882;52.256;8.874;2023-05-24T15:02:48;21.30;;;7.87;;
3733;SDS011;1882;52.256;8.874;2023-05-24T15:05:18;22.07;;;7.80;;
3733;SDS011;1882;52.256;8.874;2023-05-24T15:07:46;23.73;;;8.30;;
3733;SDS011;1882;52.256;8.874;2023-05-24T15:10:12;23.20;;;6.97;;
3733;SDS011;1882;52.256;8.874;2023-05-24T15:12:39;16.60;;;6.70;;
3733;SDS011;1882;52.256;8.874;2023-05-24T15:15:10;32.20;;;8.40;;
3733;SDS011;1882;52.256;8.874;2023-05-24T15:17:39;24.27;;;7.60;;
3733;SDS011;1882;52.256;8.874;2023-05-24T15:20:37;23.10;;;7.70;;
3733;SDS011;1882;52.256;8.874;2023-05-24T15:23:04;21.60;;;7.80;;
3733;SDS011;1882;52.256;8.874;2023-05-24T15:25:31;20.30;;;7.20;;
3733;SDS011;1882;52.256;8.874;2023-05-24T15:27:58;26.40;;;7.90;;
3733;SDS011;1882;52.256;8.874;2023-05-24T15:30:26;16.47;;;7.90;;
3733;SDS011;1882;52.256;8.874;2023-05-24T15:32:53;20.57;;;8.10;;
3733;SDS011;1882;52.256;8.874;2023-05-24T15:35:20;18.80;;;7.03;;
3733;SDS011;1882;52.256;8.874;2023-05-24T15:37:47;18.60;;;7.30;;
3733;SDS011;1882;52.256;8.874;2023-05-24T15:40:13;15.13;;;7.97;;
3733;SDS011;1882;52.256;8.874;2023-05-24T15:42:41;25.67;;;8.77;;
3733;SDS011;1882;52.256;8.874;2023-05-24T15:45:08;25.03;;;7.70;;
3733;SDS011;1882;52.256;8.874;2023-05-24T15:47:35;24.20;;;7.53;;
3733;SDS011;1882;52.256;8.874;2023-05-24T15:50:06;17.13;;;7.77;;
3733;SDS011;1882;52.256;8.874;2023-05-24T15:52:34;14.50;;;6.90;;
3733;SDS011;1882;52.256;8.874;2023-05-24T15:55:02;24.27;;;8.40;;
3733;SDS011;1882;52.256;8.874;2023-05-24T15:57:29;29.20;;;7.90;;